Time;durP1;ratioP1;P1;durP2;ratioP2;P2;SDS_P1;SDS_P2;PMS_P1;PMS_P2;Temp;Humidity;BMP_temperature;BMP_pressure;BME280_temperature;BME280_humidity;BME280_pressure;Samples;Min_cycle;Max_cycle;Signal;HPM_P1;HPM_P2
2021/12/03 00:01:31;;;;;;;1.10;1.00;;;2.50;98.00;;;;;;5013353;28;20498;-62
2021/12/03 00:03:59;;;;;;;1.10;1.00;;;2.50;98.00;;;;;;5013570;28;21036;-62
2021/12/03 00:06:27;;;;;;;1.10;1.00;;;2.30;98.00;;;;;;5013588;28;20471;-62
2021/12/03 00:08:54;;;;;;;1.10;0.90;;;2.20;98.00;;;;;;5013473;28;20490;-62
2021/12/03 00:11:22;;;;;;;4.93;1.50;;;2.10;98.00;;;;;;5013555;28;20494;-62
2021/12/03 00:13:49;;;;;;;1.10;1.00;;;2.30;98.00;;;;;;5013544;28;20487;-62
2021/12/03 00:16:16;;;;;;;1.10;1.00;;;2.30;98.00;;;;;;5013312;28;20949;-62
2021/12/03 00:18:43;;;;;;;1.10;1.00;;;2.20;98.00;;;;;;5013456;28;20455;-62
2021/12/03 00:21:12;;;;;;;1.50;1.27;;;2.20;98.00;;;;;;5013344;28;20467;-62
2021/12/03 00:23:41;;;;;;;1.10;1.00;;;2.30;98.00;;;;;;5012141;28;20578;-62
2021/12/03 00:26:09;;;;;;;1.33;1.10;;;2.30;98.00;;;;;;5013259;28;20494;-62
2021/12/03 00:28:37;;;;;;;4.50;1.67;;;2.40;98.00;;;;;;5013455;28;20487;-62
2021/12/03 00:31:06;;;;;;;1.30;1.20;;;2.40;98.00;;;;;;5013138;28;20996;-62
2021/12/03 00:33:35;;;;;;;1.20;1.10;;;2.30;98.00;;;;;;5013358;28;20491;-62
2021/12/03 00:36:05;;;;;;;1.10;1.00;;;2.40;98.00;;;;;;5013071;28;20880;-62
2021/12/03 00:38:39;;;;;;;1.10;1.00;;;2.40;98.00;;;;;;5013245;28;20454;-62
2021/12/03 00:41:09;;;;;;;1.23;1.10;;;2.30;98.00;;;;;;5013283;28;20482;-62
2021/12/03 00:43:40;;;;;;;1.30;1.13;;;2.40;98.00;;;;;;5013275;28;20527;-62
2021/12/03 00:46:09;;;;;;;1.10;1.00;;;2.30;98.00;;;;;;5013133;28;20492;-62
2021/12/03 00:48:37;;;;;;;1.10;1.00;;;2.30;98.00;;;;;;5013205;28;20459;-62
2021/12/03 00:51:05;;;;;;;1.10;1.00;;;2.30;98.00;;;;;;5012833;28;20518;-62
2021/12/03 00:53:32;;;;;;;1.20;1.10;;;2.30;98.00;;;;;;5012908;28;20455;-62
2021/12/03 00:56:00;;;;;;;1.20;1.07;;;2.40;98.00;;;;;;5012482;28;21043;-62
2021/12/03 00:58:28;;;;;;;1.20;1.00;;;2.50;98.00;;;;;;5012423;28;20470;-62
2021/12/03 01:00:55;;;;;;;1.20;1.00;;;2.50;98.00;;;;;;5012663;28;20884;-62
2021/12/03 01:03:23;;;;;;;1.20;1.00;;;2.50;98.00;;;;;;5012401;28;21096;-62
2021/12/03 01:05:50;;;;;;;1.30;1.20;;;2.40;98.00;;;;;;5012376;28;21015;-62
2021/12/03 01:08:17;;;;;;;1.20;1.00;;;2.50;98.00;;;;;;5012490;28;21053;-62
2021/12/03 01:10:44;;;;;;;1.57;1.53;;;2.50;98.00;;;;;;5012707;28;20456;-62
2021/12/03 01:13:11;;;;;;;3.40;1.40;;;2.40;98.00;;;;;;5012301;28;20525;-62
2021/12/03 01:15:42;;;;;;;1.17;1.00;;;2.40;98.00;;;;;;5012403;28;20521;-62
2021/12/03 01:18:11;;;;;;;1.33;1.27;;;2.30;98.00;;;;;;5012388;28;20516;-62
2021/12/03 01:20:40;;;;;;;1.10;1.03;;;2.30;98.00;;;;;;5012209;28;20459;-62
2021/12/03 01:23:12;;;;;;;1.10;1.00;;;2.40;98.00;;;;;;5012230;28;20898;-62
2021/12/03 01:25:40;;;;;;;1.10;1.00;;;2.40;98.00;;;;;;5012256;28;20542;-62
2021/12/03 01:28:07;;;;;;;1.20;1.00;;;2.30;98.00;;;;;;5012184;28;20465;-62
2021/12/03 01:30:35;;;;;;;1.10;1.00;;;2.30;98.00;;;;;;5012230;28;20458;-62
2021/12/03 01:33:05;;;;;;;1.10;0.90;;;2.40;98.00;;;;;;5012090;28;20455;-62
2021/12/03 01:35:36;;;;;;;1.20;1.10;;;2.30;98.00;;;;;;5012143;28;20620;-62
2021/12/03 01:38:04;;;;;;;1.60;1.20;;;2.30;98.00;;;;;;5012179;28;20520;-62
2021/12/03 01:40:33;;;;;;;1.13;1.00;;;2.40;98.00;;;;;;5011611;28;20463;-62
2021/12/03 01:43:00;;;;;;;1.20;1.00;;;2.40;98.00;;;;;;5011850;28;20491;-62
2021/12/03 01:45:30;;;;;;;1.17;0.93;;;2.30;98.00;;;;;;5011902;28;20454;-62
2021/12/03 01:47:59;;;;;;;1.10;1.00;;;2.30;98.00;;;;;;5012203;28;20469;-62
2021/12/03 01:50:31;;;;;;;1.33;1.27;;;2.30;98.00;;;;;;5012082;28;21046;-62
2021/12/03 01:52:59;;;;;;;1.10;0.90;;;2.30;98.00;;;;;;5012390;28;20459;-62
2021/12/03 01:55:26;;;;;;;1.93;1.50;;;2.20;98.00;;;;;;5011827;28;20505;-62
2021/12/03 01:57:53;;;;;;;1.10;1.00;;;2.30;98.00;;;;;;5012167;28;20460;-62
2021/12/03 02:00:30;;;;;;;1.60;1.10;;;2.40;98.00;;;;;;5011715;28;20466;-62
2021/12/03 02:02:58;;;;;;;1.10;1.00;;;2.30;98.00;;;;;;5010932;28;20921;-62
2021/12/03 02:05:27;;;;;;;1.10;1.00;;;2.40;98.00;;;;;;5011298;28;20558;-61
2021/12/03 02:07:54;;;;;;;1.40;1.13;;;2.30;98.00;;;;;;5011194;28;20467;-62
2021/12/03 02:10:23;;;;;;;1.40;1.20;;;2.40;98.00;;;;;;5014580;28;20545;-62
2021/12/03 02:12:53;;;;;;;1.20;1.10;;;2.50;98.00;;;;;;5015381;28;20509;-62
2021/12/03 02:15:20;;;;;;;3.00;1.77;;;2.40;98.00;;;;;;5015019;28;21059;-62
2021/12/03 02:17:48;;;;;;;1.13;1.00;;;2.30;98.00;;;;;;5014975;28;20524;-62
2021/12/03 02:20:16;;;;;;;1.40;1.27;;;2.20;98.00;;;;;;5014895;28;20462;-62
2021/12/03 02:22:45;;;;;;;1.10;1.00;;;2.20;98.00;;;;;;5015103;28;20501;-62
2021/12/03 02:25:15;;;;;;;1.20;1.20;;;2.20;98.00;;;;;;5014718;28;20520;-62
2021/12/03 02:27:42;;;;;;;1.10;0.90;;;2.10;98.00;;;;;;5014717;28;20961;-62
2021/12/03 02:30:11;;;;;;;1.27;1.10;;;2.00;98.00;;;;;;5015589;28;20947;-62
2021/12/03 02:32:38;;;;;;;1.10;1.00;;;2.10;98.00;;;;;;5015255;28;20463;-62
2021/12/03 02:35:06;;;;;;;2.50;1.60;;;2.00;98.00;;;;;;5015603;28;20498;-62
2021/12/03 02:37:33;;;;;;;1.20;1.10;;;2.00;98.00;;;;;;5014938;28;20954;-62
2021/12/03 02:40:05;;;;;;;1.10;0.90;;;2.00;98.00;;;;;;5015010;28;20490;-62
2021/12/03 02:42:32;;;;;;;1.20;1.10;;;2.10;98.00;;;;;;5014810;28;20939;-62
2021/12/03 02:44:59;;;;;;;1.10;1.00;;;2.10;98.00;;;;;;5014925;28;20487;-62
2021/12/03 02:47:26;;;;;;;1.10;1.00;;;2.20;98.00;;;;;;5014629;28;21092;-62
2021/12/03 02:49:53;;;;;;;1.20;1.10;;;2.10;98.00;;;;;;5014449;28;20533;-62
2021/12/03 02:52:21;;;;;;;1.30;1.20;;;2.20;98.00;;;;;;5014158;28;21220;-62
2021/12/03 02:54:48;;;;;;;1.10;1.00;;;2.20;98.00;;;;;;5014319;28;20513;-62
2021/12/03 02:57:16;;;;;;;1.10;1.00;;;2.30;98.00;;;;;;5014165;28;20462;-62
2021/12/03 02:59:43;;;;;;;1.10;1.00;;;2.40;98.00;;;;;;5014136;28;20462;-62
2021/12/03 03:02:10;;;;;;;1.20;1.13;;;2.40;98.00;;;;;;5013914;28;20470;-62
2021/12/03 03:04:37;;;;;;;1.50;1.20;;;2.30;98.00;;;;;;5013982;28;20556;-62
2021/12/03 03:07:05;;;;;;;1.30;1.30;;;2.30;98.00;;;;;;5013932;28;20502;-62
2021/12/03 03:09:32;;;;;;;1.10;0.90;;;2.30;98.00;;;;;;5013930;28;20501;-62
2021/12/03 03:12:00;;;;;;;1.57;1.20;;;2.20;98.00;;;;;;5013834;28;20467;-62
2021/12/03 03:14:28;;;;;;;1.10;1.00;;;2.30;98.00;;;;;;5013914;28;20502;-61
2021/12/03 03:16:55;;;;;;;1.10;1.00;;;2.40;98.00;;;;;;5014056;28;20491;-62
2021/12/03 03:19:24;;;;;;;1.57;1.43;;;2.30;98.00;;;;;;5013996;28;20552;-62
2021/12/03 03:21:52;;;;;;;2.07;1.30;;;2.40;98.00;;;;;;5013830;28;20458;-62
2021/12/03 03:24:19;;;;;;;1.20;1.00;;;2.40;98.00;;;;;;5013681;28;21012;-62
2021/12/03 03:26:47;;;;;;;1.17;1.00;;;2.30;98.00;;;;;;5013563;28;20459;-62
2021/12/03 03:29:17;;;;;;;1.50;1.20;;;2.20;98.00;;;;;;5013594;28;20458;-62
2021/12/03 03:31:47;;;;;;;1.20;1.10;;;2.20;98.00;;;;;;5013771;28;20513;-62
2021/12/03 03:34:14;;;;;;;1.10;1.10;;;2.10;98.00;;;;;;5013791;28;20458;-62
2021/12/03 03:36:43;;;;;;;1.20;1.17;;;2.10;98.00;;;;;;5013743;28;20572;-62
2021/12/03 03:39:12;;;;;;;1.20;1.10;;;2.10;98.00;;;;;;5013626;28;20469;-62
2021/12/03 03:41:40;;;;;;;1.20;1.10;;;2.10;98.00;;;;;;5013275;28;20541;-62
2021/12/03 03:44:08;;;;;;;1.10;0.90;;;2.20;98.00;;;;;;5013499;28;20522;-62
2021/12/03 03:46:35;;;;;;;1.10;1.00;;;2.20;98.00;;;;;;5013168;28;20458;-62
2021/12/03 03:49:04;;;;;;;1.10;1.10;;;2.20;98.00;;;;;;5013246;28;20473;-62
2021/12/03 03:51:32;;;;;;;1.10;1.00;;;2.20;98.00;;;;;;5013028;28;20467;-62
2021/12/03 03:53:59;;;;;;;1.30;1.10;;;2.10;98.00;;;;;;5013147;28;20462;-62
2021/12/03 03:56:27;;;;;;;1.13;1.07;;;2.10;98.00;;;;;;5012902;28;20521;-62
2021/12/03 03:58:54;;;;;;;1.10;1.00;;;2.10;98.00;;;;;;5013176;28;20510;-62
2021/12/03 04:01:21;;;;;;;1.17;1.03;;;2.00;98.00;;;;;;5012818;28;20494;-62
2021/12/03 04:03:48;;;;;;;1.10;0.90;;;2.00;98.00;;;;;;5012984;28;20673;-62
2021/12/03 04:06:19;;;;;;;1.20;1.00;;;2.10;98.00;;;;;;5013048;28;20455;-62
2021/12/03 04:08:48;;;;;;;1.10;1.00;;;2.10;98.00;;;;;;5012947;28;20459;-62
2021/12/03 04:11:20;;;;;;;1.20;1.10;;;2.00;98.00;;;;;;5012782;28;20565;-62
2021/12/03 04:13:48;;;;;;;1.20;1.13;;;2.00;98.00;;;;;;5012882;28;20945;-62
2021/12/03 04:16:16;;;;;;;1.10;1.07;;;1.90;98.00;;;;;;5012599;28;20497;-62
2021/12/03 04:18:43;;;;;;;1.10;1.00;;;1.80;98.00;;;;;;5012811;28;20495;-62
2021/12/03 04:21:11;;;;;;;1.10;1.00;;;1.90;98.00;;;;;;5012580;28;20485;-62
2021/12/03 04:23:39;;;;;;;1.10;1.00;;;2.00;98.00;;;;;;5012502;28;20543;-62
2021/12/03 04:26:06;;;;;;;1.10;0.90;;;1.90;98.00;;;;;;5012362;28;20462;-62
2021/12/03 04:28:33;;;;;;;1.10;1.00;;;1.90;98.00;;;;;;5012593;28;20949;-62
2021/12/03 04:31:03;;;;;;;1.10;1.00;;;1.90;98.00;;;;;;5012203;28;20493;-62
2021/12/03 04:33:30;;;;;;;1.20;1.13;;;1.90;98.00;;;;;;5012494;28;20492;-61
2021/12/03 04:35:57;;;;;;;1.20;1.00;;;1.70;98.00;;;;;;5012380;28;20886;-62
2021/12/03 04:38:24;;;;;;;1.40;1.30;;;1.80;98.00;;;;;;5012269;28;20554;-62
2021/12/03 04:40:53;;;;;;;1.67;1.10;;;1.80;98.00;;;;;;5012282;28;20909;-62
2021/12/03 04:43:21;;;;;;;1.20;1.00;;;1.80;98.00;;;;;;5012124;28;20515;-62
2021/12/03 04:45:48;;;;;;;1.10;1.00;;;1.90;98.00;;;;;;5012253;28;20556;-62
2021/12/03 04:48:25;;;;;;;2.30;1.10;;;1.80;98.00;;;;;;5012105;28;20513;-62
2021/12/03 04:50:52;;;;;;;1.10;1.00;;;1.80;98.00;;;;;;5012004;28;20857;-62
2021/12/03 04:53:20;;;;;;;1.10;1.00;;;1.90;98.00;;;;;;5012348;28;20552;-62
2021/12/03 04:55:47;;;;;;;3.20;1.53;;;1.80;98.00;;;;;;5012381;28;20485;-62
2021/12/03 04:58:16;;;;;;;2.17;1.13;;;1.90;98.00;;;;;;5012271;28;20527;-62
2021/12/03 05:00:46;;;;;;;1.13;1.00;;;2.10;98.00;;;;;;5011974;28;21015;-62
2021/12/03 05:03:13;;;;;;;2.63;1.57;;;2.00;98.00;;;;;;5012103;28;20510;-62
2021/12/03 05:05:45;;;;;;;1.20;1.10;;;2.00;98.00;;;;;;5012013;28;20549;-62
2021/12/03 05:08:12;;;;;;;1.70;1.17;;;2.00;98.00;;;;;;5011817;28;20460;-62
2021/12/03 05:10:41;;;;;;;2.90;1.93;;;1.90;98.00;;;;;;5011796;28;20953;-62
2021/12/03 05:13:10;;;;;;;1.63;1.30;;;1.80;98.00;;;;;;5011778;28;20463;-62
2021/12/03 05:15:39;;;;;;;1.10;0.93;;;1.70;98.00;;;;;;5011558;28;20533;-62
2021/12/03 05:18:09;;;;;;;1.20;1.17;;;1.60;98.00;;;;;;5011672;28;20494;-62
2021/12/03 05:20:41;;;;;;;1.20;1.20;;;1.50;98.00;;;;;;5011602;28;20949;-62
2021/12/03 05:23:08;;;;;;;1.10;1.00;;;1.40;98.00;;;;;;5010453;28;20554;-62
2021/12/03 05:25:36;;;;;;;1.20;1.20;;;1.30;98.00;;;;;;5011489;28;20530;-62
2021/12/03 05:28:04;;;;;;;2.50;1.77;;;1.30;98.00;;;;;;5011580;28;20524;-62
2021/12/03 05:30:32;;;;;;;1.10;1.00;;;1.40;98.00;;;;;;5011738;28;20502;-62
2021/12/03 05:33:01;;;;;;;1.90;1.13;;;1.50;98.00;;;;;;5011498;28;20495;-62
2021/12/03 05:35:28;;;;;;;1.20;1.10;;;1.40;98.00;;;;;;5011432;28;20866;-62
2021/12/03 05:37:55;;;;;;;1.30;1.27;;;1.40;98.00;;;;;;5011484;28;20462;-62
2021/12/03 05:40:23;;;;;;;1.33;1.10;;;1.30;98.00;;;;;;5011257;28;20460;-62
2021/12/03 05:42:54;;;;;;;3.10;1.67;;;1.20;98.00;;;;;;5010744;28;20458;-62
2021/12/03 05:45:23;;;;;;;3.53;1.80;;;1.20;98.00;;;;;;5010912;28;20490;-62
2021/12/03 05:47:51;;;;;;;1.63;1.23;;;1.20;98.00;;;;;;5011016;28;20458;-62
2021/12/03 05:50:20;;;;;;;1.10;1.00;;;1.30;98.00;;;;;;5011038;28;20494;-62
2021/12/03 05:52:51;;;;;;;1.47;1.40;;;1.30;98.00;;;;;;5011172;28;20517;-62
2021/12/03 05:55:18;;;;;;;1.10;1.00;;;1.30;98.00;;;;;;5010007;28;20495;-62
2021/12/03 05:57:46;;;;;;;1.10;1.00;;;1.40;98.00;;;;;;5011047;28;20470;-63
2021/12/03 06:00:17;;;;;;;1.10;1.00;;;1.30;98.00;;;;;;5011202;28;20509;-62
2021/12/03 06:02:45;;;;;;;2.37;1.20;;;1.40;98.00;;;;;;5010875;28;20557;-62
2021/12/03 06:05:12;;;;;;;1.23;1.20;;;1.40;98.00;;;;;;5011082;28;20925;-63
2021/12/03 06:07:40;;;;;;;1.30;1.10;;;1.50;98.00;;;;;;5009886;28;20466;-62
2021/12/03 06:10:09;;;;;;;1.10;1.00;;;1.40;98.00;;;;;;5011205;28;20495;-62
2021/12/03 06:12:36;;;;;;;1.30;1.20;;;1.50;98.00;;;;;;5011031;28;20606;-62
2021/12/03 06:15:04;;;;;;;1.10;1.00;;;1.40;98.00;;;;;;5011348;28;20519;-62
2021/12/03 06:17:31;;;;;;;1.10;1.00;;;1.30;98.00;;;;;;5011200;28;20448;-62
2021/12/03 06:19:58;;;;;;;1.10;1.00;;;1.30;98.00;;;;;;5011235;28;20557;-63
2021/12/03 06:22:25;;;;;;;1.53;1.40;;;1.30;98.00;;;;;;5010911;28;20841;-62
2021/12/03 06:24:53;;;;;;;1.10;1.00;;;1.30;98.00;;;;;;5010885;28;20545;-62
2021/12/03 06:27:20;;;;;;;2.80;1.43;;;1.20;98.00;;;;;;5010859;28;20455;-63
2021/12/03 06:29:47;;;;;;;1.10;1.00;;;1.20;98.00;;;;;;5010843;28;20957;-63
2021/12/03 06:32:14;;;;;;;2.57;1.40;;;1.20;98.00;;;;;;5010892;28;20510;-62
2021/12/03 06:34:41;;;;;;;1.10;1.00;;;1.40;98.00;;;;;;5011012;28;20544;-62
2021/12/03 06:37:09;;;;;;;1.10;1.10;;;1.40;98.00;;;;;;5010824;28;20463;-63
2021/12/03 06:39:36;;;;;;;1.27;1.23;;;1.40;98.00;;;;;;5010750;28;20534;-62
2021/12/03 06:42:05;;;;;;;1.10;1.00;;;1.40;98.00;;;;;;5010613;28;20944;-62
2021/12/03 06:44:32;;;;;;;1.10;1.00;;;1.40;98.00;;;;;;5009272;28;20607;-62
2021/12/03 06:47:02;;;;;;;1.93;1.80;;;1.40;98.00;;;;;;5010742;28;20510;-62
2021/12/03 06:49:30;;;;;;;2.17;1.20;;;1.40;98.00;;;;;;5008845;28;20466;-63
2021/12/03 06:52:01;;;;;;;1.10;1.00;;;1.40;98.00;;;;;;5010783;28;20643;-63
2021/12/03 06:54:31;;;;;;;1.10;1.00;;;1.30;98.00;;;;;;5011035;28;20459;-63
2021/12/03 06:56:59;;;;;;;1.27;1.20;;;1.30;98.00;;;;;;5014315;28;20465;-62
2021/12/03 06:59:28;;;;;;;1.47;1.40;;;1.30;98.00;;;;;;5014298;28;20548;-63
2021/12/03 07:01:55;;;;;;;1.77;1.73;;;1.20;98.00;;;;;;5014106;28;20574;-62
2021/12/03 07:04:22;;;;;;;1.10;1.00;;;1.30;98.00;;;;;;5014291;28;20514;-63
2021/12/03 07:06:49;;;;;;;2.23;1.50;;;1.40;98.00;;;;;;5014158;28;20945;-63
2021/12/03 07:09:19;;;;;;;1.70;1.37;;;1.40;98.00;;;;;;5013896;28;20490;-63
2021/12/03 07:11:46;;;;;;;2.03;1.23;;;1.50;98.00;;;;;;5013926;28;20463;-63
2021/12/03 07:14:13;;;;;;;1.50;1.40;;;1.60;98.00;;;;;;5013984;28;20894;-63
2021/12/03 07:16:42;;;;;;;1.20;1.00;;;1.50;98.00;;;;;;5014042;28;20831;-63
2021/12/03 07:19:09;;;;;;;3.30;1.30;;;1.70;98.00;;;;;;5013946;28;20462;-63
2021/12/03 07:21:36;;;;;;;1.47;1.10;;;1.80;98.00;;;;;;5014010;28;20524;-63
2021/12/03 07:24:10;;;;;;;1.10;0.90;;;1.70;98.00;;;;;;5013806;28;20549;-63
2021/12/03 07:26:38;;;;;;;1.10;1.00;;;1.80;98.00;;;;;;5013677;28;20494;-63
2021/12/03 07:29:05;;;;;;;1.10;1.07;;;1.90;98.00;;;;;;5012496;28;20459;-63
2021/12/03 07:31:33;;;;;;;1.67;1.47;;;1.90;98.00;;;;;;4996222;28;20771;-63
2021/12/03 07:34:01;;;;;;;1.63;1.53;;;2.00;98.00;;;;;;5013804;28;20831;-63
2021/12/03 07:36:28;;;;;;;1.40;1.37;;;2.10;98.00;;;;;;5013519;28;20455;-63
2021/12/03 07:38:55;;;;;;;1.63;1.53;;;2.10;98.00;;;;;;5013684;28;20547;-62
2021/12/03 07:41:22;;;;;;;1.10;1.00;;;2.20;98.00;;;;;;5013721;28;21187;-63
2021/12/03 07:43:49;;;;;;;1.20;1.07;;;2.20;98.00;;;;;;5013707;28;20886;-62
2021/12/03 07:46:16;;;;;;;2.80;1.20;;;2.10;98.00;;;;;;5013231;28;20527;-62
2021/12/03 07:48:46;;;;;;;2.77;1.83;;;2.10;98.00;;;;;;5013367;28;20474;-63
2021/12/03 07:51:15;;;;;;;1.20;1.07;;;1.90;98.00;;;;;;5013243;28;20462;-63
2021/12/03 07:53:42;;;;;;;1.10;1.00;;;1.80;98.00;;;;;;5013268;28;20472;-62
2021/12/03 07:59:06;;;;;;;1.10;1.10;;;1.80;98.00;;;;;;5013089;28;20459;-63
2021/12/03 08:01:34;;;;;;;2.10;1.70;;;1.60;98.00;;;;;;5013030;28;20546;-63
2021/12/03 08:04:01;;;;;;;1.57;1.50;;;1.40;98.00;;;;;;5013251;28;20498;-63
2021/12/03 08:06:31;;;;;;;1.10;1.00;;;1.30;98.00;;;;;;5012112;28;20483;-62
2021/12/03 08:08:58;;;;;;;1.10;1.00;;;1.40;98.00;;;;;;5013076;28;20451;-63
2021/12/03 08:11:25;;;;;;;1.30;1.30;;;1.50;98.00;;;;;;5012937;28;20548;-62
2021/12/03 08:13:52;;;;;;;1.10;1.00;;;1.50;98.00;;;;;;5012982;28;20498;-63
2021/12/03 08:16:19;;;;;;;1.10;1.00;;;1.50;98.00;;;;;;5012788;28;20517;-63
2021/12/03 08:18:46;;;;;;;1.57;1.40;;;1.50;98.00;;;;;;5012831;28;20505;-62
2021/12/03 08:21:13;;;;;;;1.30;1.27;;;1.60;98.00;;;;;;5012556;28;20466;-63
2021/12/03 08:23:41;;;;;;;1.10;1.10;;;1.60;98.00;;;;;;5012622;28;20464;-62
2021/12/03 08:26:08;;;;;;;1.10;1.00;;;1.60;98.00;;;;;;5012332;28;20522;-62
2021/12/03 08:28:35;;;;;;;1.10;1.00;;;1.60;98.00;;;;;;5012677;28;20518;-63
2021/12/03 08:31:02;;;;;;;1.47;1.30;;;1.70;98.00;;;;;;5012552;28;20507;-62
2021/12/03 08:33:29;;;;;;;1.10;1.00;;;1.70;98.00;;;;;;5012642;28;20873;-63
2021/12/03 08:35:56;;;;;;;1.20;1.03;;;1.80;98.00;;;;;;5012160;28;20494;-62
2021/12/03 08:38:32;;;;;;;2.07;1.40;;;1.80;98.00;;;;;;5012355;28;20462;-63
2021/12/03 08:41:00;;;;;;;1.37;1.10;;;1.90;98.00;;;;;;5012127;28;20462;-63
2021/12/03 08:43:28;;;;;;;1.20;1.10;;;1.80;98.00;;;;;;5012340;28;20458;-62
2021/12/03 08:45:55;;;;;;;1.10;1.00;;;1.80;98.00;;;;;;5009788;28;20540;-63
2021/12/03 08:48:23;;;;;;;2.10;1.40;;;1.80;98.00;;;;;;5009728;28;20455;-63
2021/12/03 08:50:53;;;;;;;1.10;1.00;;;1.90;98.00;;;;;;5008154;28;20486;-63
2021/12/03 08:54:48;;;;;;;1.17;1.10;;;2.00;98.00;;;;;;5008506;28;20462;-63
2021/12/03 08:56:11;;;;;;;1.10;1.00;;;2.00;98.00;;;;;;5009548;28;20466;-63
2021/12/03 08:58:38;;;;;;;1.20;1.10;;;2.10;98.00;;;;;;5009735;28;21022;-62
2021/12/03 09:01:08;;;;;;;1.33;1.27;;;2.10;98.00;;;;;;5009932;28;20949;-63
2021/12/03 09:03:35;;;;;;;1.20;1.10;;;2.10;98.00;;;;;;5008508;28;20471;-64
2021/12/03 09:06:16;;;;;;;1.20;1.10;;;2.20;98.00;;;;;;5009124;28;20538;-63
2021/12/03 09:08:44;;;;;;;6.20;1.43;;;2.20;98.00;;;;;;5008145;28;20506;-63
2021/12/03 09:11:15;;;;;;;1.83;1.80;;;2.20;98.00;;;;;;5009333;28;20448;-64
2021/12/03 09:13:43;;;;;;;1.13;1.10;;;2.20;98.00;;;;;;5008225;28;20464;-63
2021/12/03 09:16:15;;;;;;;1.93;1.70;;;2.30;98.00;;;;;;5009222;28;20510;-64
2021/12/03 09:18:44;;;;;;;1.20;1.10;;;2.30;98.00;;;;;;5009265;28;20957;-63
2021/12/03 09:21:14;;;;;;;4.53;1.60;;;2.30;98.00;;;;;;5009190;28;20577;-62
2021/12/03 09:23:51;;;;;;;1.30;1.30;;;2.50;98.00;;;;;;5009405;28;20469;-64
2021/12/03 09:26:24;;;;;;;1.13;1.00;;;2.60;98.00;;;;;;5009226;28;20494;-64
2021/12/03 09:28:58;;;;;;;1.50;1.20;;;2.60;98.00;;;;;;5001165;28;20458;-64
2021/12/03 09:31:25;;;;;;;1.13;1.00;;;2.70;98.00;;;;;;5008791;28;20516;-64
2021/12/03 09:34:01;;;;;;;1.10;1.00;;;2.70;98.00;;;;;;5007745;28;20488;-64
2021/12/03 09:36:28;;;;;;;1.53;1.20;;;2.70;98.00;;;;;;5009209;28;20463;-62
2021/12/03 09:38:55;;;;;;;1.10;1.00;;;2.80;98.00;;;;;;5008625;28;20838;-63
2021/12/03 09:41:23;;;;;;;1.27;1.23;;;2.80;98.00;;;;;;5008498;28;20493;-63
2021/12/03 09:43:52;;;;;;;1.10;1.00;;;2.90;98.00;;;;;;5008920;28;20585;-62
2021/12/03 09:46:23;;;;;;;1.40;1.13;;;2.70;98.00;;;;;;5008911;28;21024;-63
2021/12/03 09:51:49;;;;;;;1.50;1.10;;;2.70;98.00;;;;;;5006975;28;20719;-64
2021/12/03 09:54:24;;;;;;;1.10;1.00;;;2.70;98.00;;;;;;5008727;28;20772;-63
2021/12/03 09:56:58;;;;;;;1.10;1.00;;;2.70;98.00;;;;;;5008491;28;20465;-63
2021/12/03 10:02:15;;;;;;;1.97;1.40;;;3.80;98.00;;;;;;5007920;28;20482;-63
2021/12/03 10:04:56;;;;;;;1.20;1.00;;;3.80;98.00;;;;;;5007270;28;20466;-63
2021/12/03 10:13:12;;;;;;;1.90;1.40;;;3.40;98.00;;;;;;5008752;28;20501;-62
2021/12/03 10:15:55;;;;;;;1.10;0.90;;;3.20;98.00;;;;;;5008386;28;20834;-63
2021/12/03 10:18:32;;;;;;;1.17;1.00;;;3.20;98.00;;;;;;5001791;28;20459;-63
2021/12/03 10:21:06;;;;;;;1.13;1.00;;;3.30;98.00;;;;;;5008976;28;20505;-63
2021/12/03 10:38:15;;;;;;;1.10;1.00;;;3.30;98.00;;;;;;5012237;28;20443;-64
2021/12/03 10:43:49;;;;;;;1.20;0.90;;;3.50;98.00;;;;;;5011703;28;20458;-64
2021/12/03 10:49:36;;;;;;;1.10;1.00;;;3.50;98.00;;;;;;5008634;28;20490;-64
2021/12/03 11:12:54;;;;;;;1.30;1.20;;;4.50;98.00;;;;;;5011350;28;20483;-64
2021/12/03 12:25:18;;;;;;;1.20;1.10;;;6.20;98.00;;;;;;5003696;28;20465;-67
2021/12/03 12:45:26;;;;;;;1.20;1.10;;;5.60;98.00;;;;;;5009768;28;20558;-66
2021/12/03 13:13:48;;;;;;;1.40;1.20;;;6.20;98.00;;;;;;5011686;28;20447;-64
2021/12/03 14:38:19;;;;;;;1.20;1.00;;;5.10;98.00;;;;;;4973184;28;20900;-64
2021/12/03 14:43:45;;;;;;;1.20;0.90;;;4.90;98.00;;;;;;5014883;28;20590;-64
2021/12/03 14:52:00;;;;;;;1.30;1.10;;;4.80;98.00;;;;;;5014462;28;20442;-65
2021/12/03 14:54:49;;;;;;;1.40;1.30;;;4.80;98.00;;;;;;5014500;28;20816;-64
2021/12/03 14:57:29;;;;;;;1.20;1.00;;;4.80;98.00;;;;;;5014173;28;20460;-64
2021/12/03 15:02:58;;;;;;;1.20;0.90;;;4.80;98.00;;;;;;5013596;28;20464;-64
2021/12/03 15:08:28;;;;;;;1.20;1.00;;;4.70;98.00;;;;;;5012478;28;20946;-63
2021/12/03 15:11:37;;;;;;;1.20;1.00;;;4.70;98.00;;;;;;5012656;28;20513;-65
2021/12/03 15:22:43;;;;;;;3.00;1.67;;;4.60;98.00;;;;;;5012929;28;20447;-64
2021/12/03 15:25:18;;;;;;;1.20;1.00;;;4.60;98.00;;;;;;5013767;28;20468;-64
2021/12/03 15:30:47;;;;;;;1.20;1.00;;;4.50;98.00;;;;;;5008886;28;20547;-64
2021/12/03 15:33:22;;;;;;;1.20;1.00;;;4.40;98.00;;;;;;5013493;28;20782;-64
2021/12/03 15:35:58;;;;;;;2.90;1.30;;;4.20;98.00;;;;;;5013847;28;20459;-64
2021/12/03 15:38:53;;;;;;;1.20;1.00;;;4.30;98.00;;;;;;5013622;28;20500;-64
2021/12/03 15:41:41;;;;;;;1.20;1.10;;;4.30;98.00;;;;;;5013637;28;20451;-64
2021/12/03 15:57:57;;;;;;;1.20;1.00;;;3.90;98.00;;;;;;5012828;28;20485;-63
2021/12/03 16:06:17;;;;;;;1.20;1.00;;;3.60;98.00;;;;;;5013967;28;20518;-64
2021/12/03 16:08:46;;;;;;;2.03;1.50;;;3.40;98.00;;;;;;5013005;28;20454;-64
2021/12/03 16:11:23;;;;;;;1.97;1.10;;;3.40;98.00;;;;;;5012997;28;20456;-64
2021/12/03 16:13:59;;;;;;;1.17;0.90;;;3.30;98.00;;;;;;5010192;28;20836;-64
2021/12/03 16:19:35;;;;;;;1.20;1.00;;;4.00;98.00;;;;;;5010247;28;20470;-64
2021/12/03 16:22:22;;;;;;;3.87;2.03;;;3.90;98.00;;;;;;5010309;28;20884;-64
2021/12/03 16:25:04;;;;;;;1.40;1.20;;;3.80;98.00;;;;;;5010244;28;20458;-63
2021/12/03 16:44:31;;;;;;;1.20;1.00;;;3.40;98.00;;;;;;4988360;28;20570;-63
2021/12/03 16:47:05;;;;;;;1.53;1.20;;;3.40;98.00;;;;;;5009756;28;20498;-64
2021/12/03 16:52:22;;;;;;;1.20;1.00;;;3.10;98.00;;;;;;5009881;28;20453;-63
2021/12/03 16:54:53;;;;;;;1.20;1.00;;;3.10;98.00;;;;;;5012316;28;20455;-63
2021/12/03 16:57:21;;;;;;;1.20;1.10;;;3.10;98.00;;;;;;5011910;28;20485;-63
2021/12/03 16:59:49;;;;;;;1.10;1.00;;;2.90;98.00;;;;;;5012172;28;20462;-63
2021/12/03 17:02:20;;;;;;;1.50;1.50;;;2.90;98.00;;;;;;5011835;28;20464;-63
2021/12/03 17:05:11;;;;;;;1.30;1.10;;;2.80;98.00;;;;;;5011032;28;20957;-64
2021/12/03 17:11:05;;;;;;;1.90;1.40;;;2.60;98.00;;;;;;5011628;28;20812;-63
2021/12/03 17:13:49;;;;;;;1.40;1.10;;;2.40;98.00;;;;;;5011907;28;20493;-63
2021/12/03 17:16:39;;;;;;;1.30;1.10;;;2.40;98.00;;;;;;5011712;28;20463;-64
2021/12/03 17:30:42;;;;;;;1.60;1.40;;;2.40;98.00;;;;;;5008933;28;20456;-63
2021/12/03 17:47:24;;;;;;;1.20;1.10;;;2.70;98.00;;;;;;5011151;28;20489;-64
2021/12/03 17:49:53;;;;;;;2.90;1.83;;;2.70;98.00;;;;;;5010473;28;20466;-64
2021/12/03 17:52:33;;;;;;;1.10;1.00;;;2.70;98.00;;;;;;5011179;28;20946;-64
2021/12/03 17:55:30;;;;;;;1.50;1.37;;;2.70;98.00;;;;;;5011403;28;20772;-64
2021/12/03 17:58:02;;;;;;;1.63;1.33;;;2.50;98.00;;;;;;5011219;28;20457;-64
2021/12/03 18:00:37;;;;;;;1.20;1.13;;;2.50;98.00;;;;;;5011375;28;20463;-63
2021/12/03 18:03:07;;;;;;;2.10;1.70;;;2.40;98.00;;;;;;5011377;28;20843;-65
2021/12/03 18:08:25;;;;;;;1.67;1.20;;;2.30;98.00;;;;;;5011048;28;20524;-65
2021/12/03 18:11:24;;;;;;;1.20;1.20;;;2.20;98.00;;;;;;5011216;28;20874;-64
2021/12/03 18:43:08;;;;;;;1.10;1.00;;;2.20;98.00;;;;;;5010140;28;20485;-64
2021/12/03 18:44:57;;;;;;;1.10;0.90;;;2.10;98.00;;;;;;5011057;28;20450;-63
2021/12/03 18:47:57;;;;;;;1.10;0.97;;;2.10;98.00;;;;;;5010838;28;20489;-64
2021/12/03 18:50:52;;;;;;;1.20;1.07;;;2.30;98.00;;;;;;5011018;28;20477;-64
2021/12/03 18:53:40;;;;;;;1.70;1.47;;;2.40;98.00;;;;;;5013102;28;20462;-64
2021/12/03 18:56:15;;;;;;;1.10;1.00;;;2.40;98.00;;;;;;5014414;28;20454;-64
2021/12/03 18:58:42;;;;;;;1.47;1.23;;;2.50;98.00;;;;;;5014280;28;20481;-64
2021/12/03 19:01:11;;;;;;;1.20;1.10;;;2.50;98.00;;;;;;5014276;28;20532;-64
2021/12/03 19:03:53;;;;;;;1.20;1.10;;;2.40;98.00;;;;;;5014137;28;20469;-63
2021/12/03 19:06:24;;;;;;;1.20;1.10;;;2.40;98.00;;;;;;5014207;28;20454;-63
2021/12/03 19:08:53;;;;;;;1.67;1.57;;;2.20;98.00;;;;;;5012844;28;20544;-64
2021/12/03 19:11:23;;;;;;;1.10;1.00;;;2.10;98.00;;;;;;5014073;28;20516;-63
2021/12/03 19:13:51;;;;;;;1.50;1.20;;;2.10;98.00;;;;;;5014086;28;20481;-64
2021/12/03 19:16:21;;;;;;;1.63;1.47;;;2.00;98.00;;;;;;5013989;28;20807;-64
2021/12/03 19:18:52;;;;;;;1.77;1.20;;;2.10;98.00;;;;;;5014057;28;20462;-64
2021/12/03 19:21:23;;;;;;;8.43;2.27;;;2.20;98.00;;;;;;5013861;28;20464;-64
2021/12/03 19:23:50;;;;;;;2.70;1.37;;;2.10;98.00;;;;;;5013888;28;20467;-63
2021/12/03 19:26:19;;;;;;;2.13;1.43;;;2.20;98.00;;;;;;5013915;28;20508;-65
2021/12/03 19:28:46;;;;;;;1.20;1.00;;;2.30;98.00;;;;;;5013774;28;20493;-64
2021/12/03 19:31:13;;;;;;;1.20;1.00;;;2.20;98.00;;;;;;5013769;28;20480;-64
2021/12/03 19:33:41;;;;;;;1.20;1.00;;;2.10;98.00;;;;;;5013850;28;20462;-64